sensor_id;sensor_type;location;lat;lon;timestamp;P1;durP1;ratioP1;P2;durP2;ratioP2
3971;SDS011;2000;47.572;14.202;2023-02-28T00:00:16;4.37;;;2.80;;
3971;SDS011;2000;47.572;14.202;2023-02-28T00:02:44;3.20;;;2.17;;
3971;SDS011;2000;47.572;14.202;2023-02-28T00:05:11;6.00;;;2.17;;
3971;SDS011;2000;47.572;14.202;2023-02-28T00:07:40;4.47;;;2.80;;
3971;SDS011;2000;47.572;14.202;2023-02-28T00:10:09;3.80;;;2.57;;
3971;SDS011;2000;47.572;14.202;2023-02-28T00:12:37;4.90;;;2.87;;
3971;SDS011;2000;47.572;14.202;2023-02-28T00:15:08;3.33;;;2.13;;
3971;SDS011;2000;47.572;14.202;2023-02-28T00:17:36;7.53;;;3.00;;
3971;SDS011;2000;47.572;14.202;2023-02-28T00:20:03;5.57;;;2.53;;
3971;SDS011;2000;47.572;14.202;2023-02-28T00:22:34;6.40;;;2.50;;
3971;SDS011;2000;47.572;14.202;2023-02-28T00:25:01;4.33;;;2.30;;
3971;SDS011;2000;47.572;14.202;2023-02-28T00:27:27;3.53;;;2.60;;
3971;SDS011;2000;47.572;14.202;2023-02-28T00:29:54;3.13;;;1.70;;
3971;SDS011;2000;47.572;14.202;2023-02-28T00:32:21;4.73;;;2.70;;
3971;SDS011;2000;47.572;14.202;2023-02-28T00:34:48;2.77;;;1.97;;
3971;SDS011;2000;47.572;14.202;2023-02-28T00:37:15;3.90;;;1.73;;
3971;SDS011;2000;47.572;14.202;2023-02-28T00:39:41;5.70;;;2.13;;
3971;SDS011;2000;47.572;14.202;2023-02-28T00:42:08;8.00;;;2.20;;
3971;SDS011;2000;47.572;14.202;2023-02-28T00:44:35;2.70;;;1.57;;
3971;SDS011;2000;47.572;14.202;2023-02-28T00:47:02;3.60;;;2.30;;
3971;SDS011;2000;47.572;14.202;2023-02-28T00:49:29;8.93;;;2.20;;
3971;SDS011;2000;47.572;14.202;2023-02-28T00:51:55;4.00;;;2.10;;
3971;SDS011;2000;47.572;14.202;2023-02-28T00:54:23;2.70;;;2.00;;
3971;SDS011;2000;47.572;14.202;2023-02-28T00:56:50;2.10;;;1.90;;
3971;SDS011;2000;47.572;14.202;2023-02-28T00:59:17;14.93;;;1.87;;
3971;SDS011;2000;47.572;14.202;2023-02-28T01:01:44;5.80;;;2.00;;
3971;SDS011;2000;47.572;14.202;2023-02-28T01:04:12;5.97;;;2.27;;
3971;SDS011;2000;47.572;14.202;2023-02-28T01:06:39;2.00;;;1.67;;
3971;SDS011;2000;47.572;14.202;2023-02-28T01:09:06;2.37;;;2.17;;
3971;SDS011;2000;47.572;14.202;2023-02-28T01:11:34;7.20;;;2.10;;
3971;SDS011;2000;47.572;14.202;2023-02-28T01:14:01;3.53;;;2.30;;
3971;SDS011;2000;47.572;14.202;2023-02-28T01:16:28;1.50;;;1.40;;
3971;SDS011;2000;47.572;14.202;2023-02-28T01:18:55;5.07;;;1.83;;
3971;SDS011;2000;47.572;14.202;2023-02-28T01:21:22;1.90;;;1.63;;
3971;SDS011;2000;47.572;14.202;2023-02-28T01:23:49;1.50;;;1.30;;
3971;SDS011;2000;47.572;14.202;2023-02-28T01:26:17;3.70;;;2.33;;
3971;SDS011;2000;47.572;14.202;2023-02-28T01:28:48;6.03;;;2.10;;
3971;SDS011;2000;47.572;14.202;2023-02-28T01:31:15;8.43;;;1.80;;
3971;SDS011;2000;47.572;14.202;2023-02-28T01:33:43;2.70;;;2.03;;
3971;SDS011;2000;47.572;14.202;2023-02-28T01:36:28;3.20;;;2.37;;
3971;SDS011;2000;47.572;14.202;2023-02-28T01:38:55;3.00;;;2.40;;
3971;SDS011;2000;47.572;14.202;2023-02-28T01:41:26;3.50;;;2.33;;
3971;SDS011;2000;47.572;14.202;2023-02-28T01:43:57;1.93;;;1.83;;
3971;SDS011;2000;47.572;14.202;2023-02-28T01:46:34;2.13;;;1.93;;
3971;SDS011;2000;47.572;14.202;2023-02-28T01:49:06;4.97;;;2.30;;
3971;SDS011;2000;47.572;14.202;2023-02-28T01:54:18;5.20;;;2.47;;
3971;SDS011;2000;47.572;14.202;2023-02-28T01:56:52;3.90;;;2.40;;
3971;SDS011;2000;47.572;14.202;2023-02-28T01:59:39;5.27;;;2.63;;
3971;SDS011;2000;47.572;14.202;2023-02-28T02:02:13;2.87;;;1.90;;
3971;SDS011;2000;47.572;14.202;2023-02-28T02:04:42;3.07;;;2.70;;
3971;SDS011;2000;47.572;14.202;2023-02-28T02:07:16;4.57;;;2.17;;
3971;SDS011;2000;47.572;14.202;2023-02-28T02:09:42;2.40;;;1.87;;
3971;SDS011;2000;47.572;14.202;2023-02-28T02:12:23;3.07;;;1.93;;
3971;SDS011;2000;47.572;14.202;2023-02-28T02:15:09;3.13;;;2.17;;
3971;SDS011;2000;47.572;14.202;2023-02-28T02:17:42;3.53;;;2.63;;
3971;SDS011;2000;47.572;14.202;2023-02-28T02:23:26;2.90;;;1.60;;
3971;SDS011;2000;47.572;14.202;2023-02-28T02:34:55;4.20;;;2.03;;
3971;SDS011;2000;47.572;14.202;2023-02-28T02:40:10;2.47;;;2.07;;
3971;SDS011;2000;47.572;14.202;2023-02-28T02:48:05;2.20;;;2.10;;
3971;SDS011;2000;47.572;14.202;2023-02-28T02:50:35;3.73;;;2.30;;
3971;SDS011;2000;47.572;14.202;2023-02-28T02:53:05;3.70;;;1.90;;
3971;SDS011;2000;47.572;14.202;2023-02-28T02:55:34;5.20;;;3.00;;
3971;SDS011;2000;47.572;14.202;2023-02-28T02:58:04;4.37;;;2.07;;
3971;SDS011;2000;47.572;14.202;2023-02-28T03:00:37;2.57;;;1.80;;
3971;SDS011;2000;47.572;14.202;2023-02-28T03:03:08;4.37;;;2.87;;
3971;SDS011;2000;47.572;14.202;2023-02-28T03:05:41;2.30;;;1.73;;
3971;SDS011;2000;47.572;14.202;2023-02-28T03:08:13;3.87;;;2.60;;
3971;SDS011;2000;47.572;14.202;2023-02-28T03:10:41;3.53;;;2.07;;
3971;SDS011;2000;47.572;14.202;2023-02-28T03:15:50;5.33;;;2.70;;
3971;SDS011;2000;47.572;14.202;2023-02-28T03:18:58;2.87;;;2.30;;
3971;SDS011;2000;47.572;14.202;2023-02-28T03:21:43;3.10;;;2.50;;
3971;SDS011;2000;47.572;14.202;2023-02-28T03:24:17;2.50;;;2.30;;
3971;SDS011;2000;47.572;14.202;2023-02-28T03:26:49;2.20;;;1.93;;
3971;SDS011;2000;47.572;14.202;2023-02-28T03:29:22;3.70;;;2.00;;
3971;SDS011;2000;47.572;14.202;2023-02-28T03:34:53;4.20;;;2.20;;
3971;SDS011;2000;47.572;14.202;2023-02-28T03:37:22;4.23;;;2.40;;
3971;SDS011;2000;47.572;14.202;2023-02-28T03:39:55;4.57;;;2.80;;
3971;SDS011;2000;47.572;14.202;2023-02-28T03:42:26;8.33;;;2.93;;
3971;SDS011;2000;47.572;14.202;2023-02-28T03:44:58;4.53;;;2.40;;
3971;SDS011;2000;47.572;14.202;2023-02-28T03:47:29;6.77;;;3.50;;
3971;SDS011;2000;47.572;14.202;2023-02-28T03:50:29;6.60;;;3.77;;
3971;SDS011;2000;47.572;14.202;2023-02-28T03:53:03;5.10;;;2.63;;
3971;SDS011;2000;47.572;14.202;2023-02-28T03:55:51;5.40;;;2.93;;
3971;SDS011;2000;47.572;14.202;2023-02-28T03:58:31;2.00;;;1.87;;
3971;SDS011;2000;47.572;14.202;2023-02-28T04:01:04;3.43;;;2.60;;
3971;SDS011;2000;47.572;14.202;2023-02-28T04:03:37;2.60;;;2.40;;
3971;SDS011;2000;47.572;14.202;2023-02-28T04:06:05;15.20;;;2.80;;
3971;SDS011;2000;47.572;14.202;2023-02-28T04:08:34;5.93;;;2.53;;
3971;SDS011;2000;47.572;14.202;2023-02-28T04:11:05;5.10;;;2.73;;
3971;SDS011;2000;47.572;14.202;2023-02-28T04:13:35;6.13;;;2.53;;
3971;SDS011;2000;47.572;14.202;2023-02-28T04:16:02;5.77;;;2.57;;
3971;SDS011;2000;47.572;14.202;2023-02-28T04:18:46;5.40;;;2.43;;
3971;SDS011;2000;47.572;14.202;2023-02-28T04:21:13;6.57;;;2.07;;
3971;SDS011;2000;47.572;14.202;2023-02-28T04:23:40;3.50;;;2.37;;
3971;SDS011;2000;47.572;14.202;2023-02-28T04:26:07;4.23;;;3.00;;
3971;SDS011;2000;47.572;14.202;2023-02-28T04:28:34;4.70;;;3.00;;
3971;SDS011;2000;47.572;14.202;2023-02-28T04:31:02;5.20;;;2.87;;
3971;SDS011;2000;47.572;14.202;2023-02-28T04:33:30;7.23;;;2.80;;
3971;SDS011;2000;47.572;14.202;2023-02-28T04:35:59;2.00;;;1.87;;
3971;SDS011;2000;47.572;14.202;2023-02-28T04:38:33;2.90;;;2.10;;
3971;SDS011;2000;47.572;14.202;2023-02-28T04:41:01;3.37;;;2.60;;
3971;SDS011;2000;47.572;14.202;2023-02-28T04:43:29;3.30;;;2.70;;
3971;SDS011;2000;47.572;14.202;2023-02-28T04:45:56;6.90;;;2.33;;
3971;SDS011;2000;47.572;14.202;2023-02-28T04:48:24;4.50;;;2.67;;
3971;SDS011;2000;47.572;14.202;2023-02-28T04:50:51;3.00;;;2.70;;
3971;SDS011;2000;47.572;14.202;2023-02-28T04:53:18;3.50;;;2.80;;
3971;SDS011;2000;47.572;14.202;2023-02-28T04:55:45;3.73;;;3.00;;
3971;SDS011;2000;47.572;14.202;2023-02-28T04:58:13;3.83;;;3.27;;
3971;SDS011;2000;47.572;14.202;2023-02-28T05:00:40;3.60;;;2.70;;
3971;SDS011;2000;47.572;14.202;2023-02-28T05:03:07;3.23;;;2.77;;
3971;SDS011;2000;47.572;14.202;2023-02-28T05:05:34;4.10;;;2.93;;
3971;SDS011;2000;47.572;14.202;2023-02-28T05:08:00;3.93;;;3.10;;
3971;SDS011;2000;47.572;14.202;2023-02-28T05:10:27;3.63;;;2.93;;
3971;SDS011;2000;47.572;14.202;2023-02-28T05:12:54;4.93;;;2.87;;
3971;SDS011;2000;47.572;14.202;2023-02-28T05:15:21;3.10;;;2.70;;
3971;SDS011;2000;47.572;14.202;2023-02-28T05:17:47;2.80;;;2.50;;
3971;SDS011;2000;47.572;14.202;2023-02-28T05:20:14;5.03;;;3.00;;
3971;SDS011;2000;47.572;14.202;2023-02-28T05:22:42;2.80;;;2.03;;
3971;SDS011;2000;47.572;14.202;2023-02-28T05:25:15;3.53;;;2.43;;
3971;SDS011;2000;47.572;14.202;2023-02-28T05:27:43;4.13;;;2.10;;
3971;SDS011;2000;47.572;14.202;2023-02-28T05:30:10;4.40;;;2.67;;
3971;SDS011;2000;47.572;14.202;2023-02-28T05:32:38;5.63;;;2.70;;
3971;SDS011;2000;47.572;14.202;2023-02-28T05:35:05;2.97;;;2.33;;
3971;SDS011;2000;47.572;14.202;2023-02-28T05:37:32;13.87;;;3.37;;
3971;SDS011;2000;47.572;14.202;2023-02-28T05:39:59;3.10;;;2.30;;
3971;SDS011;2000;47.572;14.202;2023-02-28T05:42:26;6.03;;;3.20;;
3971;SDS011;2000;47.572;14.202;2023-02-28T05:44:52;7.20;;;2.13;;
3971;SDS011;2000;47.572;14.202;2023-02-28T05:47:19;5.80;;;2.77;;
3971;SDS011;2000;47.572;14.202;2023-02-28T05:49:46;3.10;;;2.67;;
3971;SDS011;2000;47.572;14.202;2023-02-28T05:52:12;10.33;;;2.53;;
3971;SDS011;2000;47.572;14.202;2023-02-28T05:54:39;2.43;;;1.90;;
3971;SDS011;2000;47.572;14.202;2023-02-28T05:57:06;4.20;;;2.60;;
3971;SDS011;2000;47.572;14.202;2023-02-28T05:59:47;3.67;;;2.40;;
3971;SDS011;2000;47.572;14.202;2023-02-28T06:02:15;2.53;;;2.00;;
3971;SDS011;2000;47.572;14.202;2023-02-28T06:04:43;3.70;;;2.43;;
3971;SDS011;2000;47.572;14.202;2023-02-28T06:07:10;4.57;;;3.80;;
3971;SDS011;2000;47.572;14.202;2023-02-28T06:09:38;4.73;;;2.87;;
3971;SDS011;2000;47.572;14.202;2023-02-28T06:12:05;2.67;;;2.30;;
3971;SDS011;2000;47.572;14.202;2023-02-28T06:14:33;8.67;;;2.83;;
3971;SDS011;2000;47.572;14.202;2023-02-28T06:17:01;6.67;;;3.43;;
3971;SDS011;2000;47.572;14.202;2023-02-28T06:19:28;3.60;;;2.27;;
3971;SDS011;2000;47.572;14.202;2023-02-28T06:21:56;3.73;;;2.50;;
3971;SDS011;2000;47.572;14.202;2023-02-28T06:24:24;3.77;;;2.87;;
3971;SDS011;2000;47.572;14.202;2023-02-28T06:26:51;3.43;;;2.80;;
3971;SDS011;2000;47.572;14.202;2023-02-28T06:29:17;5.33;;;2.50;;
3971;SDS011;2000;47.572;14.202;2023-02-28T06:31:45;7.83;;;3.30;;
3971;SDS011;2000;47.572;14.202;2023-02-28T06:34:13;4.23;;;3.40;;
3971;SDS011;2000;47.572;14.202;2023-02-28T06:36:40;9.40;;;4.30;;
3971;SDS011;2000;47.572;14.202;2023-02-28T06:39:08;6.00;;;3.13;;
3971;SDS011;2000;47.572;14.202;2023-02-28T06:41:35;8.13;;;2.60;;
3971;SDS011;2000;47.572;14.202;2023-02-28T06:44:20;3.57;;;2.97;;
3971;SDS011;2000;47.572;14.202;2023-02-28T06:46:47;5.23;;;3.10;;
3971;SDS011;2000;47.572;14.202;2023-02-28T06:49:14;3.67;;;2.30;;
3971;SDS011;2000;47.572;14.202;2023-02-28T06:51:42;6.73;;;2.80;;
3971;SDS011;2000;47.572;14.202;2023-02-28T06:54:11;4.23;;;2.57;;
3971;SDS011;2000;47.572;14.202;2023-02-28T06:56:38;6.90;;;3.70;;
3971;SDS011;2000;47.572;14.202;2023-02-28T06:59:06;2.97;;;2.50;;
3971;SDS011;2000;47.572;14.202;2023-02-28T07:01:33;6.60;;;2.23;;
3971;SDS011;2000;47.572;14.202;2023-02-28T07:03:59;17.23;;;3.17;;
3971;SDS011;2000;47.572;14.202;2023-02-28T07:06:26;4.00;;;3.50;;
3971;SDS011;2000;47.572;14.202;2023-02-28T07:08:54;3.50;;;2.60;;
3971;SDS011;2000;47.572;14.202;2023-02-28T07:11:22;4.73;;;2.80;;
3971;SDS011;2000;47.572;14.202;2023-02-28T07:13:52;9.50;;;2.90;;
3971;SDS011;2000;47.572;14.202;2023-02-28T07:16:22;3.57;;;2.57;;
3971;SDS011;2000;47.572;14.202;2023-02-28T07:18:53;3.17;;;2.60;;
3971;SDS011;2000;47.572;14.202;2023-02-28T07:21:21;5.70;;;2.70;;
3971;SDS011;2000;47.572;14.202;2023-02-28T07:23:48;2.90;;;2.30;;
3971;SDS011;2000;47.572;14.202;2023-02-28T07:26:15;3.60;;;2.50;;
3971;SDS011;2000;47.572;14.202;2023-02-28T07:28:44;3.10;;;2.43;;
3971;SDS011;2000;47.572;14.202;2023-02-28T07:31:13;5.17;;;3.27;;
3971;SDS011;2000;47.572;14.202;2023-02-28T07:33:40;5.30;;;2.97;;
3971;SDS011;2000;47.572;14.202;2023-02-28T07:36:09;4.10;;;2.50;;
3971;SDS011;2000;47.572;14.202;2023-02-28T07:38:42;13.93;;;2.47;;
3971;SDS011;2000;47.572;14.202;2023-02-28T07:41:14;6.63;;;2.20;;
3971;SDS011;2000;47.572;14.202;2023-02-28T07:43:42;8.43;;;3.27;;
3971;SDS011;2000;47.572;14.202;2023-02-28T07:46:10;11.03;;;2.60;;
3971;SDS011;2000;47.572;14.202;2023-02-28T07:48:39;20.87;;;5.63;;
3971;SDS011;2000;47.572;14.202;2023-02-28T07:51:05;4.03;;;3.40;;
3971;SDS011;2000;47.572;14.202;2023-02-28T07:53:33;3.00;;;2.53;;
3971;SDS011;2000;47.572;14.202;2023-02-28T07:56:00;4.33;;;3.27;;
3971;SDS011;2000;47.572;14.202;2023-02-28T07:58:28;5.53;;;3.00;;
3971;SDS011;2000;47.572;14.202;2023-02-28T08:00:55;3.23;;;2.60;;
3971;SDS011;2000;47.572;14.202;2023-02-28T08:03:22;5.70;;;2.73;;
3971;SDS011;2000;47.572;14.202;2023-02-28T08:05:50;3.60;;;2.80;;
3971;SDS011;2000;47.572;14.202;2023-02-28T08:08:18;6.07;;;2.33;;
3971;SDS011;2000;47.572;14.202;2023-02-28T08:10:45;4.83;;;3.23;;
3971;SDS011;2000;47.572;14.202;2023-02-28T08:13:12;14.83;;;3.20;;
3971;SDS011;2000;47.572;14.202;2023-02-28T08:15:40;16.03;;;4.00;;
3971;SDS011;2000;47.572;14.202;2023-02-28T08:18:08;6.77;;;3.63;;
3971;SDS011;2000;47.572;14.202;2023-02-28T08:20:35;10.37;;;4.10;;
3971;SDS011;2000;47.572;14.202;2023-02-28T08:23:02;9.50;;;4.40;;
3971;SDS011;2000;47.572;14.202;2023-02-28T08:25:28;4.43;;;2.90;;
3971;SDS011;2000;47.572;14.202;2023-02-28T08:27:55;4.63;;;3.30;;
3971;SDS011;2000;47.572;14.202;2023-02-28T08:30:22;3.43;;;3.13;;
3971;SDS011;2000;47.572;14.202;2023-02-28T08:32:49;7.40;;;3.47;;
3971;SDS011;2000;47.572;14.202;2023-02-28T08:35:15;5.87;;;4.17;;
3971;SDS011;2000;47.572;14.202;2023-02-28T08:37:42;5.20;;;3.60;;
3971;SDS011;2000;47.572;14.202;2023-02-28T08:40:09;7.27;;;4.27;;
3971;SDS011;2000;47.572;14.202;2023-02-28T08:42:37;7.90;;;4.70;;
3971;SDS011;2000;47.572;14.202;2023-02-28T08:45:04;10.13;;;5.77;;
3971;SDS011;2000;47.572;14.202;2023-02-28T08:47:31;8.50;;;4.80;;
3971;SDS011;2000;47.572;14.202;2023-02-28T08:49:58;8.73;;;5.03;;
3971;SDS011;2000;47.572;14.202;2023-02-28T08:52:24;8.30;;;4.30;;
3971;SDS011;2000;47.572;14.202;2023-02-28T08:54:51;14.33;;;5.60;;
3971;SDS011;2000;47.572;14.202;2023-02-28T08:57:18;6.70;;;4.83;;
3971;SDS011;2000;47.572;14.202;2023-02-28T08:59:45;10.00;;;5.27;;
3971;SDS011;2000;47.572;14.202;2023-02-28T09:02:12;7.57;;;3.83;;
3971;SDS011;2000;47.572;14.202;2023-02-28T09:04:40;9.50;;;5.63;;
3971;SDS011;2000;47.572;14.202;2023-02-28T09:07:07;11.13;;;5.07;;
3971;SDS011;2000;47.572;14.202;2023-02-28T09:09:34;16.70;;;5.07;;
3971;SDS011;2000;47.572;14.202;2023-02-28T09:12:01;8.67;;;5.50;;
3971;SDS011;2000;47.572;14.202;2023-02-28T09:14:28;7.60;;;4.00;;
3971;SDS011;2000;47.572;14.202;2023-02-28T09:16:55;25.63;;;4.70;;
3971;SDS011;2000;47.572;14.202;2023-02-28T09:19:21;11.80;;;4.80;;
3971;SDS011;2000;47.572;14.202;2023-02-28T09:21:48;7.17;;;4.60;;
3971;SDS011;2000;47.572;14.202;2023-02-28T09:24:15;7.23;;;4.33;;
3971;SDS011;2000;47.572;14.202;2023-02-28T09:26:42;6.40;;;4.67;;
3971;SDS011;2000;47.572;14.202;2023-02-28T09:29:29;7.47;;;5.10;;
3971;SDS011;2000;47.572;14.202;2023-02-28T09:31:56;9.83;;;4.60;;
3971;SDS011;2000;47.572;14.202;2023-02-28T09:34:25;5.40;;;3.53;;
3971;SDS011;2000;47.572;14.202;2023-02-28T09:36:53;7.00;;;4.47;;
3971;SDS011;2000;47.572;14.202;2023-02-28T09:39:21;7.10;;;4.97;;
3971;SDS011;2000;47.572;14.202;2023-02-28T09:41:52;21.90;;;5.00;;
3971;SDS011;2000;47.572;14.202;2023-02-28T09:47:13;7.87;;;4.30;;
3971;SDS011;2000;47.572;14.202;2023-02-28T09:49:46;10.00;;;5.43;;
3971;SDS011;2000;47.572;14.202;2023-02-28T09:52:15;7.53;;;4.70;;
3971;SDS011;2000;47.572;14.202;2023-02-28T09:54:45;15.03;;;6.17;;
3971;SDS011;2000;47.572;14.202;2023-02-28T09:57:29;10.37;;;7.10;;
3971;SDS011;2000;47.572;14.202;2023-02-28T10:05:27;12.77;;;5.97;;
3971;SDS011;2000;47.572;14.202;2023-02-28T10:10:41;11.43;;;5.57;;
3971;SDS011;2000;47.572;14.202;2023-02-28T10:15:58;15.60;;;4.50;;
3971;SDS011;2000;47.572;14.202;2023-02-28T10:18:30;8.23;;;5.30;;
3971;SDS011;2000;47.572;14.202;2023-02-28T10:21:35;8.80;;;4.73;;
3971;SDS011;2000;47.572;14.202;2023-02-28T10:24:11;4.97;;;3.93;;
3971;SDS011;2000;47.572;14.202;2023-02-28T10:26:47;8.63;;;5.33;;
3971;SDS011;2000;47.572;14.202;2023-02-28T10:29:14;17.43;;;4.40;;
3971;SDS011;2000;47.572;14.202;2023-02-28T10:31:41;7.33;;;4.33;;
3971;SDS011;2000;47.572;14.202;2023-02-28T10:34:08;5.17;;;3.93;;
3971;SDS011;2000;47.572;14.202;2023-02-28T10:36:39;10.00;;;4.90;;
3971;SDS011;2000;47.572;14.202;2023-02-28T10:42:23;10.73;;;5.93;;
3971;SDS011;2000;47.572;14.202;2023-02-28T10:45:14;10.23;;;4.90;;
3971;SDS011;2000;47.572;14.202;2023-02-28T10:47:49;8.63;;;3.90;;
3971;SDS011;2000;47.572;14.202;2023-02-28T10:50:27;9.10;;;4.87;;
3971;SDS011;2000;47.572;14.202;2023-02-28T10:53:07;6.60;;;4.13;;
3971;SDS011;2000;47.572;14.202;2023-02-28T10:55:41;8.37;;;5.00;;
3971;SDS011;2000;47.572;14.202;2023-02-28T10:58:20;10.20;;;4.33;;
3971;SDS011;2000;47.572;14.202;2023-02-28T11:00:48;7.43;;;5.10;;
3971;SDS011;2000;47.572;14.202;2023-02-28T11:06:07;5.57;;;3.97;;
3971;SDS011;2000;47.572;14.202;2023-02-28T11:08:43;5.77;;;3.70;;
3971;SDS011;2000;47.572;14.202;2023-02-28T11:11:20;9.93;;;4.63;;
3971;SDS011;2000;47.572;14.202;2023-02-28T11:13:51;9.00;;;4.40;;
3971;SDS011;2000;47.572;14.202;2023-02-28T11:16:20;7.90;;;4.43;;
3971;SDS011;2000;47.572;14.202;2023-02-28T11:18:48;17.73;;;4.53;;
3971;SDS011;2000;47.572;14.202;2023-02-28T11:21:18;12.73;;;4.47;;
3971;SDS011;2000;47.572;14.202;2023-02-28T11:23:51;12.80;;;5.17;;
3971;SDS011;2000;47.572;14.202;2023-02-28T11:26:35;10.00;;;4.00;;
3971;SDS011;2000;47.572;14.202;2023-02-28T11:29:11;8.23;;;4.30;;
3971;SDS011;2000;47.572;14.202;2023-02-28T11:31:41;6.33;;;4.50;;
3971;SDS011;2000;47.572;14.202;2023-02-28T11:34:22;6.47;;;4.10;;
3971;SDS011;2000;47.572;14.202;2023-02-28T11:36:53;8.80;;;3.40;;
3971;SDS011;2000;47.572;14.202;2023-02-28T11:39:20;10.70;;;3.83;;
3971;SDS011;2000;47.572;14.202;2023-02-28T11:57:59;15.03;;;3.70;;
3971;SDS011;2000;47.572;14.202;2023-02-28T12:03:44;7.83;;;3.73;;
3971;SDS011;2000;47.572;14.202;2023-02-28T12:06:41;7.17;;;3.90;;
3971;SDS011;2000;47.572;14.202;2023-02-28T12:12:04;8.03;;;3.60;;
3971;SDS011;2000;47.572;14.202;2023-02-28T12:14:46;5.30;;;3.53;;
3971;SDS011;2000;47.572;14.202;2023-02-28T12:20:11;5.10;;;3.30;;
3971;SDS011;2000;47.572;14.202;2023-02-28T12:28:44;6.40;;;3.60;;
3971;SDS011;2000;47.572;14.202;2023-02-28T12:34:13;5.67;;;4.10;;
3971;SDS011;2000;47.572;14.202;2023-02-28T12:36:44;5.10;;;3.40;;
3971;SDS011;2000;47.572;14.202;2023-02-28T12:39:16;9.10;;;3.40;;
3971;SDS011;2000;47.572;14.202;2023-02-28T12:42:03;8.40;;;3.63;;
3971;SDS011;2000;47.572;14.202;2023-02-28T12:44:39;8.10;;;3.40;;
3971;SDS011;2000;47.572;14.202;2023-02-28T12:47:16;6.87;;;3.97;;
3971;SDS011;2000;47.572;14.202;2023-02-28T12:52:17;6.57;;;3.40;;
3971;SDS011;2000;47.572;14.202;2023-02-28T12:54:52;6.23;;;3.80;;
3971;SDS011;2000;47.572;14.202;2023-02-28T12:57:36;4.87;;;3.43;;
3971;SDS011;2000;47.572;14.202;2023-02-28T13:00:16;6.83;;;3.40;;
3971;SDS011;2000;47.572;14.202;2023-02-28T13:02:52;8.00;;;4.60;;
3971;SDS011;2000;47.572;14.202;2023-02-28T13:05:50;7.97;;;3.40;;
3971;SDS011;2000;47.572;14.202;2023-02-28T13:11:45;7.93;;;3.20;;
3971;SDS011;2000;47.572;14.202;2023-02-28T13:14:23;7.43;;;3.90;;
3971;SDS011;2000;47.572;14.202;2023-02-28T13:16:58;4.80;;;3.40;;
3971;SDS011;2000;47.572;14.202;2023-02-28T13:19:26;6.13;;;3.30;;
3971;SDS011;2000;47.572;14.202;2023-02-28T13:21:55;9.23;;;4.00;;
3971;SDS011;2000;47.572;14.202;2023-02-28T13:24:36;9.77;;;4.33;;
3971;SDS011;2000;47.572;14.202;2023-02-28T13:34:35;9.10;;;4.53;;
3971;SDS011;2000;47.572;14.202;2023-02-28T13:39:54;7.43;;;3.17;;
3971;SDS011;2000;47.572;14.202;2023-02-28T13:42:23;9.07;;;4.67;;
3971;SDS011;2000;47.572;14.202;2023-02-28T13:45:26;9.73;;;4.10;;
3971;SDS011;2000;47.572;14.202;2023-02-28T13:48:00;21.23;;;3.53;;
3971;SDS011;2000;47.572;14.202;2023-02-28T13:50:29;8.40;;;3.90;;
3971;SDS011;2000;47.572;14.202;2023-02-28T13:58:39;7.13;;;3.93;;
3971;SDS011;2000;47.572;14.202;2023-02-28T14:06:30;11.20;;;5.57;;
3971;SDS011;2000;47.572;14.202;2023-02-28T14:11:45;8.20;;;3.87;;
3971;SDS011;2000;47.572;14.202;2023-02-28T14:17:02;17.83;;;3.80;;
3971;SDS011;2000;47.572;14.202;2023-02-28T14:19:31;7.27;;;3.53;;
3971;SDS011;2000;47.572;14.202;2023-02-28T14:32:26;5.00;;;3.17;;
3971;SDS011;2000;47.572;14.202;2023-02-28T14:38:04;6.40;;;3.67;;
3971;SDS011;2000;47.572;14.202;2023-02-28T14:40:33;8.07;;;4.80;;
3971;SDS011;2000;47.572;14.202;2023-02-28T14:43:02;4.57;;;3.67;;
3971;SDS011;2000;47.572;14.202;2023-02-28T14:45:32;11.60;;;4.30;;
3971;SDS011;2000;47.572;14.202;2023-02-28T14:48:00;12.77;;;4.53;;
3971;SDS011;2000;47.572;14.202;2023-02-28T14:50:31;7.37;;;4.40;;
3971;SDS011;2000;47.572;14.202;2023-02-28T14:53:00;6.70;;;3.90;;
3971;SDS011;2000;47.572;14.202;2023-02-28T14:55:32;6.80;;;3.70;;
3971;SDS011;2000;47.572;14.202;2023-02-28T14:58:02;5.47;;;4.13;;
3971;SDS011;2000;47.572;14.202;2023-02-28T15:00:34;6.47;;;3.77;;
3971;SDS011;2000;47.572;14.202;2023-02-28T15:06:02;8.70;;;4.03;;
3971;SDS011;2000;47.572;14.202;2023-02-28T15:08:30;9.50;;;4.53;;
3971;SDS011;2000;47.572;14.202;2023-02-28T15:11:03;9.37;;;4.20;;
3971;SDS011;2000;47.572;14.202;2023-02-28T15:16:19;9.70;;;5.10;;
3971;SDS011;2000;47.572;14.202;2023-02-28T15:21:23;12.20;;;5.77;;
3971;SDS011;2000;47.572;14.202;2023-02-28T15:24:13;10.33;;;5.30;;
3971;SDS011;2000;47.572;14.202;2023-02-28T15:26:43;12.43;;;5.33;;
3971;SDS011;2000;47.572;14.202;2023-02-28T15:29:13;12.87;;;5.20;;
3971;SDS011;2000;47.572;14.202;2023-02-28T15:31:46;14.40;;;6.30;;
3971;SDS011;2000;47.572;14.202;2023-02-28T15:40:04;16.40;;;5.37;;
3971;SDS011;2000;47.572;14.202;2023-02-28T15:43:04;10.13;;;4.40;;
3971;SDS011;2000;47.572;14.202;2023-02-28T15:45:45;12.93;;;6.00;;
3971;SDS011;2000;47.572;14.202;2023-02-28T15:48:27;17.00;;;8.37;;
3971;SDS011;2000;47.572;14.202;2023-02-28T15:53:41;25.73;;;5.03;;
3971;SDS011;2000;47.572;14.202;2023-02-28T15:58:45;10.23;;;5.80;;
3971;SDS011;2000;47.572;14.202;2023-02-28T16:01:19;19.63;;;10.47;;
3971;SDS011;2000;47.572;14.202;2023-02-28T16:04:02;6.80;;;4.43;;
3971;SDS011;2000;47.572;14.202;2023-02-28T16:06:44;10.13;;;4.73;;
3971;SDS011;2000;47.572;14.202;2023-02-28T16:09:12;9.50;;;5.30;;
3971;SDS011;2000;47.572;14.202;2023-02-28T16:11:42;14.23;;;8.17;;
3971;SDS011;2000;47.572;14.202;2023-02-28T16:14:20;16.73;;;7.50;;
3971;SDS011;2000;47.572;14.202;2023-02-28T16:16:52;10.80;;;5.80;;
3971;SDS011;2000;47.572;14.202;2023-02-28T16:19:20;10.43;;;4.93;;
3971;SDS011;2000;47.572;14.202;2023-02-28T16:21:48;18.90;;;5.30;;
3971;SDS011;2000;47.572;14.202;2023-02-28T16:24:15;8.50;;;4.43;;
3971;SDS011;2000;47.572;14.202;2023-02-28T16:26:42;12.40;;;5.90;;
3971;SDS011;2000;47.572;14.202;2023-02-28T16:29:21;13.47;;;6.10;;
3971;SDS011;2000;47.572;14.202;2023-02-28T16:31:51;16.50;;;7.53;;
3971;SDS011;2000;47.572;14.202;2023-02-28T16:34:19;12.40;;;7.13;;
3971;SDS011;2000;47.572;14.202;2023-02-28T16:36:47;11.13;;;5.93;;
3971;SDS011;2000;47.572;14.202;2023-02-28T16:39:14;23.03;;;6.90;;
3971;SDS011;2000;47.572;14.202;2023-02-28T16:41:44;19.33;;;6.70;;
3971;SDS011;2000;47.572;14.202;2023-02-28T16:44:13;12.73;;;7.37;;
3971;SDS011;2000;47.572;14.202;2023-02-28T16:46:47;14.77;;;7.10;;
3971;SDS011;2000;47.572;14.202;2023-02-28T16:49:14;11.47;;;6.17;;
3971;SDS011;2000;47.572;14.202;2023-02-28T16:51:41;23.40;;;7.23;;
3971;SDS011;2000;47.572;14.202;2023-02-28T16:54:08;13.23;;;7.20;;
3971;SDS011;2000;47.572;14.202;2023-02-28T16:56:34;28.83;;;10.10;;
3971;SDS011;2000;47.572;14.202;2023-02-28T16:59:01;12.13;;;7.57;;
3971;SDS011;2000;47.572;14.202;2023-02-28T17:01:28;11.97;;;7.17;;
3971;SDS011;2000;47.572;14.202;2023-02-28T17:03:56;21.93;;;12.33;;
3971;SDS011;2000;47.572;14.202;2023-02-28T17:06:24;21.40;;;7.87;;
3971;SDS011;2000;47.572;14.202;2023-02-28T17:08:55;22.93;;;10.33;;
3971;SDS011;2000;47.572;14.202;2023-02-28T17:11:23;15.00;;;10.40;;
3971;SDS011;2000;47.572;14.202;2023-02-28T17:13:50;17.50;;;7.90;;
3971;SDS011;2000;47.572;14.202;2023-02-28T17:16:22;16.07;;;7.63;;
3971;SDS011;2000;47.572;14.202;2023-02-28T17:18:53;16.33;;;8.10;;
3971;SDS011;2000;47.572;14.202;2023-02-28T17:21:21;21.43;;;7.40;;
3971;SDS011;2000;47.572;14.202;2023-02-28T17:23:48;16.73;;;4.43;;
3971;SDS011;2000;47.572;14.202;2023-02-28T17:26:15;9.13;;;4.60;;
3971;SDS011;2000;47.572;14.202;2023-02-28T17:28:47;11.30;;;4.30;;
3971;SDS011;2000;47.572;14.202;2023-02-28T17:31:14;9.73;;;4.53;;
3971;SDS011;2000;47.572;14.202;2023-02-28T17:33:41;11.53;;;6.10;;
3971;SDS011;2000;47.572;14.202;2023-02-28T17:36:18;9.13;;;6.63;;
3971;SDS011;2000;47.572;14.202;2023-02-28T17:38:49;15.60;;;6.63;;
3971;SDS011;2000;47.572;14.202;2023-02-28T17:41:16;14.03;;;5.60;;
3971;SDS011;2000;47.572;14.202;2023-02-28T17:43:43;13.53;;;8.47;;
3971;SDS011;2000;47.572;14.202;2023-02-28T17:46:17;16.23;;;8.90;;